Terminal Aerodrome Forecast
Issued by NWS Chicago, IL

Home | Current Version | Previous Version | Graphics & Text | Print | Product List | Glossary On
Versions: 1 2 3 4 5 6 7 8 9 10 11 12 13 14 15 16 17 18 19 20 21 22 23 24 25 26 27 28 29 30 31
000
FTUS43 KLOT 241700
TAFRFD
TAF
KRFD 241734Z 2418/2518 15021G31KT P6SM VCSH SCT050 BKN080
      TEMPO 2420/2422 6SM -SHRA BKN050
     FM242300 15015G23KT P6SM BKN060
     FM250100 14009KT 6SM -SHRA SCT014 OVC040
     FM250300 10006KT 5SM -SHRA SCT007 OVC014
     FM250700 33012KT P6SM FEW250
     FM251600 29014G20KT P6SM FEW250=

USA.gov is the U.S. government's official web portal to all federal, state and local government web resources and services.